createdAt,value
2016-09-14T00:00:28.861Z,0
2016-09-14T00:01:28.510Z,0
2016-09-14T00:02:28.294Z,0
2016-09-14T00:03:28.582Z,0
2016-09-14T00:04:27.862Z,0
2016-09-14T00:05:27.809Z,0
2016-09-14T00:06:27.815Z,0
2016-09-14T00:07:28.047Z,0
2016-09-14T00:08:28.047Z,0
2016-09-14T00:09:28.261Z,0
2016-09-14T00:10:27.677Z,0
2016-09-14T00:11:27.861Z,0
2016-09-14T00:12:27.834Z,0
2016-09-14T00:13:27.774Z,0
2016-09-14T00:14:28.043Z,0
2016-09-14T00:15:28.048Z,0
2016-09-14T00:16:27.882Z,0
2016-09-14T00:17:27.950Z,0
2016-09-14T00:18:27.882Z,0
2016-09-14T00:19:27.751Z,0
2016-09-14T00:20:27.707Z,0
2016-09-14T00:21:27.456Z,0
2016-09-14T00:22:27.926Z,0
2016-09-14T00:23:28.098Z,0
2016-09-14T00:24:28.026Z,0
2016-09-14T00:25:27.086Z,0
2016-09-14T00:26:27.242Z,0
2016-09-14T00:27:27.522Z,0
2016-09-14T00:28:27.153Z,0
2016-09-14T00:29:27.124Z,0
2016-09-14T00:30:26.482Z,0
2016-09-14T00:31:27.003Z,0
2016-09-14T00:32:27.241Z,0
2016-09-14T00:33:27.151Z,0
2016-09-14T00:34:27.181Z,0
2016-09-14T00:35:27.038Z,0
2016-09-14T00:36:26.475Z,0
2016-09-14T00:37:26.754Z,0
2016-09-14T00:38:26.716Z,0
2016-09-14T00:39:26.994Z,0
2016-09-14T00:40:26.950Z,0
2016-09-14T00:41:26.955Z,0
2016-09-14T00:42:26.906Z,0
2016-09-14T00:43:26.876Z,0
2016-09-14T00:44:26.855Z,0
2016-09-14T00:45:26.499Z,0
2016-09-14T00:46:26.882Z,0
2016-09-14T00:47:26.526Z,0
2016-09-14T00:48:26.362Z,0
2016-09-14T00:49:26.241Z,0
2016-09-14T00:50:26.766Z,0
2016-09-14T00:51:26.359Z,0
2016-09-14T00:52:26.137Z,0
2016-09-14T00:53:26.276Z,0
2016-09-14T00:54:26.338Z,0
2016-09-14T00:55:25.895Z,0
2016-09-14T00:56:25.973Z,0
2016-09-14T00:57:25.905Z,0
2016-09-14T00:58:26.171Z,0
2016-09-14T00:59:26.132Z,0
2016-09-14T01:00:25.769Z,0
2016-09-14T01:01:25.955Z,0
2016-09-14T01:02:25.697Z,0
2016-09-14T01:03:25.646Z,0
2016-09-14T01:04:25.961Z,0
2016-09-14T01:05:25.951Z,0
2016-09-14T01:06:25.512Z,0
2016-09-14T01:07:25.709Z,0
2016-09-14T01:08:25.819Z,0
2016-09-14T01:09:25.409Z,0
2016-09-14T01:10:25.049Z,0
2016-09-14T01:11:25.374Z,0
2016-09-14T01:12:24.653Z,0
2016-09-14T01:13:25.537Z,0
2016-09-14T01:14:25.175Z,0
2016-09-14T01:15:25.446Z,0
2016-09-14T01:16:25.098Z,0
2016-09-14T01:17:25.384Z,0
2016-09-14T01:18:25.315Z,0
2016-09-14T01:19:25.277Z,0
2016-09-14T01:20:25.109Z,0
2016-09-14T01:21:25.168Z,0
2016-09-14T01:22:24.828Z,0
2016-09-14T01:23:25.296Z,0
2016-09-14T01:24:25.277Z,0
2016-09-14T01:25:25.222Z,0
2016-09-14T01:26:24.966Z,0
2016-09-14T01:27:25.307Z,0
2016-09-14T01:28:25.069Z,0
2016-09-14T01:29:25.034Z,0
2016-09-14T01:30:24.576Z,0
2016-09-14T01:31:24.459Z,0
2016-09-14T01:32:24.922Z,0
2016-09-14T01:33:24.647Z,0
2016-09-14T01:34:24.616Z,0
2016-09-14T01:35:24.772Z,0
2016-09-14T01:36:24.235Z,0
2016-09-14T01:37:24.192Z,0
2016-09-14T01:38:24.354Z,0
2016-09-14T01:39:24.455Z,0
2016-09-14T01:40:24.103Z,0
2016-09-14T01:41:23.985Z,0
2016-09-14T01:42:23.982Z,0
2016-09-14T01:43:23.939Z,0
2016-09-14T01:44:23.894Z,0
2016-09-14T01:45:24.071Z,0
2016-09-14T01:46:24.306Z,0
2016-09-14T01:47:23.784Z,0
2016-09-14T01:48:24.416Z,0
2016-09-14T01:49:23.670Z,0
2016-09-14T01:50:24.330Z,0
2016-09-14T01:51:23.578Z,0
2016-09-14T01:52:24.050Z,0
2016-09-14T01:53:24.103Z,0
2016-09-14T01:54:23.453Z,0
2016-09-14T01:55:24.314Z,0
2016-09-14T01:56:23.579Z,0
2016-09-14T01:57:24.127Z,0
2016-09-14T01:58:23.279Z,0
2016-09-14T01:59:23.264Z,0
2016-09-14T02:00:23.179Z,0
2016-09-14T02:01:23.471Z,0
2016-09-14T02:02:23.124Z,0
2016-09-14T02:03:23.786Z,0
2016-09-14T02:04:23.540Z,0
2016-09-14T02:05:23.521Z,0
2016-09-14T02:06:23.251Z,0
2016-09-14T02:07:24.309Z,0
2016-09-14T02:08:23.135Z,0
2016-09-14T02:09:23.005Z,0
2016-09-14T02:10:22.784Z,0
2016-09-14T02:11:23.031Z,0
2016-09-14T02:12:23.077Z,0
2016-09-14T02:13:22.720Z,0
2016-09-14T02:14:22.881Z,0
2016-09-14T02:15:22.731Z,0
2016-09-14T02:16:22.808Z,0
2016-09-14T02:17:22.355Z,0
2016-09-14T02:18:22.606Z,0
2016-09-14T02:19:22.344Z,0
2016-09-14T02:20:22.268Z,0
2016-09-14T02:21:22.587Z,0
2016-09-14T02:22:22.961Z,0
2016-09-14T02:23:22.202Z,0
2016-09-14T02:24:22.034Z,0
2016-09-14T02:25:22.430Z,0
2016-09-14T02:26:21.764Z,0
2016-09-14T02:27:22.425Z,0
2016-09-14T02:28:22.000Z,0
2016-09-14T02:29:21.542Z,0
2016-09-14T02:30:22.192Z,0
2016-09-14T02:31:21.747Z,0
2016-09-14T02:32:21.861Z,0
2016-09-14T02:33:22.055Z,0
2016-09-14T02:34:22.820Z,0
2016-09-14T02:35:22.025Z,0
2016-09-14T02:36:22.157Z,0
2016-09-14T02:37:22.218Z,0
2016-09-14T02:38:21.748Z,0
2016-09-14T02:39:21.615Z,0
2016-09-14T02:40:21.844Z,0
2016-09-14T02:41:21.624Z,0
2016-09-14T02:42:21.689Z,0
2016-09-14T02:43:21.835Z,0
2016-09-14T02:44:21.633Z,0
2016-09-14T02:45:21.232Z,0
2016-09-14T02:46:21.632Z,0
2016-09-14T02:47:21.454Z,0
2016-09-14T02:48:22.290Z,0
2016-09-14T02:49:21.100Z,0
2016-09-14T02:50:21.016Z,0
2016-09-14T02:51:20.676Z,0
2016-09-14T02:52:20.628Z,0
2016-09-14T02:53:20.898Z,0
2016-09-14T02:54:20.523Z,0
2016-09-14T02:55:20.686Z,0
2016-09-14T02:56:20.153Z,0
2016-09-14T02:57:21.033Z,0
2016-09-14T02:58:21.014Z,0
2016-09-14T02:59:20.634Z,0
2016-09-14T03:00:20.259Z,0
2016-09-14T03:01:21.059Z,0
2016-09-14T03:02:20.483Z,0
2016-09-14T03:03:20.761Z,0
2016-09-14T03:04:20.715Z,0
2016-09-14T03:05:21.148Z,0
2016-09-14T03:06:20.338Z,0
2016-09-14T03:07:20.805Z,0
2016-09-14T03:08:20.441Z,0
2016-09-14T03:09:20.095Z,0
2016-09-14T03:10:20.158Z,0
2016-09-14T03:11:20.000Z,0
2016-09-14T03:12:20.577Z,0
2016-09-14T03:13:20.276Z,0
2016-09-14T03:14:19.977Z,0
2016-09-14T03:15:20.234Z,0
2016-09-14T03:16:20.213Z,0
2016-09-14T03:17:20.543Z,0
2016-09-14T03:18:19.691Z,0
2016-09-14T03:19:21.269Z,0
2016-09-14T03:20:19.929Z,0
2016-09-14T03:21:20.197Z,0
2016-09-14T03:22:19.612Z,0
2016-09-14T03:23:20.091Z,0
2016-09-14T03:24:19.261Z,0
2016-09-14T03:25:19.816Z,0
2016-09-14T03:26:19.529Z,0
2016-09-14T03:27:19.453Z,0
2016-09-14T03:28:19.101Z,0
2016-09-14T03:29:19.245Z,0
2016-09-14T03:30:19.590Z,0
2016-09-14T03:31:19.468Z,0
2016-09-14T03:32:19.203Z,0
2016-09-14T03:33:19.467Z,0
2016-09-14T03:34:19.437Z,0
2016-09-14T03:35:19.375Z,0
2016-09-14T03:36:18.934Z,0
2016-09-14T03:37:19.046Z,0
2016-09-14T03:38:19.287Z,0
2016-09-14T03:39:18.880Z,0
2016-09-14T03:40:18.842Z,0
2016-09-14T03:41:18.804Z,0
2016-09-14T03:42:18.791Z,0
2016-09-14T03:43:18.699Z,0
2016-09-14T03:44:19.040Z,0
2016-09-14T03:45:18.995Z,0
2016-09-14T03:46:18.587Z,0
2016-09-14T03:47:18.571Z,0
2016-09-14T03:48:18.524Z,0
2016-09-14T03:49:18.953Z,0
2016-09-14T03:50:18.092Z,0
2016-09-14T03:51:19.042Z,0
2016-09-14T03:52:18.633Z,0
2016-09-14T03:53:18.033Z,0
2016-09-14T03:54:18.244Z,0
2016-09-14T03:55:18.226Z,0
2016-09-14T03:56:18.441Z,0
2016-09-14T03:57:18.412Z,0
2016-09-14T03:58:18.397Z,0
2016-09-14T03:59:18.350Z,0
2016-09-14T04:00:17.350Z,0
2016-09-14T04:01:17.936Z,0
2016-09-14T04:02:17.899Z,0
2016-09-14T04:03:17.870Z,0
2016-09-14T04:04:17.505Z,0
2016-09-14T04:05:17.774Z,0
2016-09-14T04:06:17.717Z,0
2016-09-14T04:07:17.677Z,0
2016-09-14T04:08:18.205Z,0
2016-09-14T04:09:18.099Z,0
2016-09-14T04:10:17.225Z,0
2016-09-14T04:11:17.493Z,0
2016-09-14T04:12:17.762Z,0
2016-09-14T04:13:17.397Z,0
2016-09-14T04:14:17.681Z,0
2016-09-14T04:15:17.841Z,0
2016-09-14T04:16:17.647Z,0
2016-09-14T04:17:17.224Z,0
2016-09-14T04:18:17.220Z,0
2016-09-14T04:19:17.158Z,0
2016-09-14T04:20:16.809Z,0
2016-09-14T04:21:17.279Z,0
2016-09-14T04:22:17.522Z,0
2016-09-14T04:23:17.181Z,0
2016-09-14T04:24:17.237Z,0
2016-09-14T04:25:17.197Z,0
2016-09-14T04:26:16.885Z,0
2016-09-14T04:27:16.860Z,0
2016-09-14T04:28:16.755Z,0
2016-09-14T04:29:16.763Z,0
2016-09-14T04:30:17.179Z,0
2016-09-14T04:31:16.324Z,0
2016-09-14T04:32:16.565Z,0
2016-09-14T04:33:16.856Z,0
2016-09-14T04:34:16.490Z,0
2016-09-14T04:35:16.552Z,0
2016-09-14T04:36:16.401Z,0
2016-09-14T04:37:16.360Z,0
2016-09-14T04:38:16.629Z,0
2016-09-14T04:39:16.487Z,0
2016-09-14T04:40:16.230Z,0
2016-09-14T04:41:16.662Z,0
2016-09-14T04:42:15.605Z,0
2016-09-14T04:43:16.406Z,0
2016-09-14T04:44:16.365Z,0
2016-09-14T04:45:16.405Z,0
2016-09-14T04:46:16.178Z,0
2016-09-14T04:47:16.125Z,0
2016-09-14T04:48:16.195Z,0
2016-09-14T04:49:15.834Z,0
2016-09-14T04:50:15.484Z,0
2016-09-14T04:51:15.752Z,0
2016-09-14T04:52:15.395Z,0
2016-09-14T04:53:15.969Z,0
2016-09-14T04:54:16.008Z,0
2016-09-14T04:55:15.565Z,0
2016-09-14T04:56:15.856Z,0
2016-09-14T04:57:15.809Z,0
2016-09-14T04:58:15.673Z,0
2016-09-14T04:59:15.422Z,0
2016-09-14T05:00:15.555Z,0
2016-09-14T05:01:15.317Z,0
2016-09-14T05:02:14.972Z,0
2016-09-14T05:03:15.731Z,0
2016-09-14T05:04:15.497Z,0
2016-09-14T05:05:14.835Z,0
2016-09-14T05:06:15.470Z,0
2016-09-14T05:07:15.424Z,0
2016-09-14T05:08:15.005Z,0
2016-09-14T05:09:15.263Z,0
2016-09-14T05:10:15.123Z,0
2016-09-14T05:11:15.193Z,0
2016-09-14T05:12:15.367Z,0
2016-09-14T05:13:15.561Z,0
2016-09-14T05:14:15.041Z,0
2016-09-14T05:15:15.180Z,0
2016-09-14T05:16:15.080Z,0
2016-09-14T05:17:14.504Z,0
2016-09-14T05:18:14.771Z,0
2016-09-14T05:19:14.532Z,0
2016-09-14T05:20:14.187Z,0
2016-09-14T05:21:13.824Z,0
2016-09-14T05:22:14.888Z,0
2016-09-14T05:23:14.876Z,5
2016-09-14T05:24:14.595Z,5
2016-09-14T05:25:14.766Z,5
2016-09-14T05:26:14.138Z,5
2016-09-14T05:27:14.816Z,5
2016-09-14T05:28:14.148Z,5
2016-09-14T05:29:14.596Z,5
2016-09-14T05:30:13.942Z,5
2016-09-14T05:31:14.302Z,5
2016-09-14T05:32:14.245Z,5
2016-09-14T05:33:14.482Z,5
2016-09-14T05:34:13.951Z,5
2016-09-14T05:35:14.143Z,5
2016-09-14T05:36:14.503Z,5
2016-09-14T05:37:13.442Z,5
2016-09-14T05:38:13.927Z,5
2016-09-14T05:39:13.848Z,5
2016-09-14T05:40:14.958Z,5
2016-09-14T05:41:13.567Z,10
2016-09-14T05:42:13.774Z,10
2016-09-14T05:43:14.121Z,10
2016-09-14T05:44:13.445Z,10
2016-09-14T05:45:13.302Z,10
2016-09-14T05:46:13.766Z,10
2016-09-14T05:47:14.024Z,10
2016-09-14T05:48:14.164Z,10
2016-09-14T05:49:13.922Z,10
2016-09-14T05:50:13.189Z,10
2016-09-14T05:51:13.685Z,10
2016-09-14T05:52:13.313Z,10
2016-09-14T05:53:13.342Z,10
2016-09-14T05:54:13.930Z,10
2016-09-14T05:55:13.915Z,10
2016-09-14T05:56:12.921Z,15
2016-09-14T05:57:12.776Z,15
2016-09-14T05:58:12.715Z,15
2016-09-14T05:59:13.103Z,15
2016-09-14T06:00:13.037Z,15
2016-09-14T06:01:12.709Z,15
2016-09-14T06:02:12.620Z,15
2016-09-14T06:03:12.505Z,15
2016-09-14T06:04:12.246Z,15
2016-09-14T06:05:12.534Z,15
2016-09-14T06:06:12.796Z,15
2016-09-14T06:07:12.903Z,15
2016-09-14T06:08:12.803Z,15
2016-09-14T06:09:12.653Z,15
2016-09-14T06:10:12.610Z,15
2016-09-14T06:11:12.270Z,15
2016-09-14T06:12:12.771Z,15
2016-09-14T06:13:11.592Z,20
2016-09-14T06:14:12.188Z,20
2016-09-14T06:15:12.420Z,20
2016-09-14T06:16:12.755Z,20
2016-09-14T06:17:12.000Z,20
2016-09-14T06:18:12.685Z,20
2016-09-14T06:19:11.920Z,20
2016-09-14T06:20:12.398Z,20
2016-09-14T06:21:11.570Z,20
2016-09-14T06:22:12.298Z,20
2016-09-14T06:23:12.054Z,20
2016-09-14T06:24:11.685Z,20
2016-09-14T06:25:12.385Z,20
2016-09-14T06:26:11.924Z,20
2016-09-14T06:27:11.601Z,20
2016-09-14T06:28:11.884Z,25
2016-09-14T06:29:11.743Z,25
2016-09-14T06:30:11.802Z,25
2016-09-14T06:31:11.749Z,25
2016-09-14T06:32:12.138Z,25
2016-09-14T06:33:11.589Z,25
2016-09-14T06:34:11.882Z,25
2016-09-14T06:35:11.099Z,25
2016-09-14T06:36:11.230Z,25
2016-09-14T06:37:11.480Z,25
2016-09-14T06:38:11.098Z,25
2016-09-14T06:39:11.086Z,30
2016-09-14T06:40:11.537Z,30
2016-09-14T06:41:11.273Z,30
2016-09-14T06:42:11.440Z,30
2016-09-14T06:43:10.776Z,30
2016-09-14T06:44:10.840Z,30
2016-09-14T06:45:11.916Z,30
2016-09-14T06:46:10.939Z,30
2016-09-14T06:47:10.693Z,30
2016-09-14T06:48:10.385Z,30
2016-09-14T06:49:11.131Z,30
2016-09-14T06:50:11.797Z,35
2016-09-14T06:51:10.858Z,35
2016-09-14T06:52:10.710Z,35
2016-09-14T06:53:11.033Z,35
2016-09-14T06:54:10.525Z,35
2016-09-14T06:55:11.538Z,35
2016-09-14T06:56:10.666Z,35
2016-09-14T06:57:10.320Z,40
2016-09-14T06:58:10.528Z,40
2016-09-14T06:59:09.624Z,40
2016-09-14T07:00:09.900Z,40
2016-09-14T07:01:10.412Z,40
2016-09-14T07:02:10.172Z,40
2016-09-14T07:03:10.690Z,40
2016-09-14T07:04:09.855Z,40
2016-09-14T07:05:10.522Z,45
2016-09-14T07:06:10.322Z,45
2016-09-14T07:07:10.054Z,45
2016-09-14T07:08:10.146Z,45
2016-09-14T07:09:10.174Z,45
2016-09-14T07:10:10.276Z,45
2016-09-14T07:11:10.432Z,45
2016-09-14T07:12:10.038Z,50
2016-09-14T07:13:10.419Z,50
2016-09-14T07:14:10.050Z,50
2016-09-14T07:15:10.395Z,50
2016-09-14T07:16:10.337Z,50
2016-09-14T07:17:10.382Z,50
2016-09-14T07:18:09.807Z,55
2016-09-14T07:19:10.075Z,55
2016-09-14T07:20:09.973Z,55
2016-09-14T07:21:10.539Z,55
2016-09-14T07:22:09.761Z,55
2016-09-14T07:23:10.168Z,55
2016-09-14T07:24:09.896Z,55
2016-09-14T07:25:09.054Z,55
2016-09-14T07:26:10.255Z,55
2016-09-14T07:27:08.927Z,60
2016-09-14T07:28:09.573Z,60
2016-09-14T07:29:09.636Z,60
2016-09-14T07:30:09.500Z,60
2016-09-14T07:31:09.479Z,60
2016-09-14T07:32:09.224Z,65
2016-09-14T07:33:09.530Z,65
2016-09-14T07:34:09.378Z,65
2016-09-14T07:35:08.986Z,65
2016-09-14T07:36:09.066Z,65
2016-09-14T07:37:08.971Z,65
2016-09-14T07:38:09.386Z,70
2016-09-14T07:39:09.181Z,70
2016-09-14T07:40:09.181Z,70
2016-09-14T07:41:09.265Z,70
2016-09-14T07:42:08.852Z,70
2016-09-14T07:43:08.860Z,70
2016-09-14T07:44:08.639Z,75
2016-09-14T07:45:08.478Z,75
2016-09-14T07:46:08.940Z,75
2016-09-14T07:47:08.417Z,75
2016-09-14T07:48:07.968Z,75
2016-09-14T07:49:08.710Z,75
2016-09-14T07:50:08.581Z,75
2016-09-14T07:51:08.519Z,80
2016-09-14T07:52:08.848Z,80
2016-09-14T07:53:08.466Z,80
2016-09-14T07:54:08.389Z,80
2016-09-14T07:55:08.517Z,80
2016-09-14T07:56:08.486Z,85
2016-09-14T07:57:08.420Z,85
2016-09-14T07:58:08.472Z,85
2016-09-14T07:59:08.296Z,85
2016-09-14T08:00:08.392Z,85
2016-09-14T08:01:08.474Z,85
2016-09-14T08:02:08.360Z,90
2016-09-14T08:03:07.813Z,90
2016-09-14T08:04:07.760Z,90
2016-09-14T08:05:07.743Z,90
2016-09-14T08:06:08.531Z,90
2016-09-14T08:07:07.842Z,95
2016-09-14T08:08:07.828Z,95
2016-09-14T08:09:07.129Z,90
2016-09-14T08:10:07.171Z,95
2016-09-14T08:11:07.411Z,90
2016-09-14T08:12:07.848Z,95
2016-09-14T08:13:06.804Z,95
2016-09-14T08:14:07.187Z,95
2016-09-14T08:15:07.210Z,105
2016-09-14T08:16:07.166Z,105
2016-09-14T08:17:07.347Z,105
2016-09-14T08:18:06.559Z,105
2016-09-14T08:19:07.273Z,105
2016-09-14T08:20:07.046Z,105
2016-09-14T08:21:06.878Z,105
2016-09-14T08:22:07.243Z,105
2016-09-14T08:23:07.085Z,105
2016-09-14T08:24:07.226Z,105
2016-09-14T08:25:06.776Z,105
2016-09-14T08:26:06.648Z,105
2016-09-14T08:27:06.669Z,105
2016-09-14T08:28:06.271Z,105
2016-09-14T08:29:06.525Z,105
2016-09-14T08:30:06.833Z,105
2016-09-14T08:31:06.884Z,105
2016-09-14T08:32:06.708Z,115
2016-09-14T08:33:06.672Z,115
2016-09-14T08:34:07.020Z,115
2016-09-14T08:35:06.725Z,105
2016-09-14T08:36:06.000Z,110
2016-09-14T08:37:05.839Z,110
2016-09-14T08:38:06.341Z,110
2016-09-14T08:39:05.777Z,110
2016-09-14T08:40:06.485Z,110
2016-09-14T08:41:06.068Z,110
2016-09-14T08:42:06.351Z,110
2016-09-14T08:43:06.097Z,110
2016-09-14T08:44:06.240Z,110
2016-09-14T08:45:06.099Z,110
2016-09-14T08:46:06.479Z,110
2016-09-14T08:47:06.002Z,110
2016-09-14T08:48:05.718Z,110
2016-09-14T08:49:05.688Z,110
2016-09-14T08:50:06.011Z,110
2016-09-14T08:51:06.126Z,110
2016-09-14T08:52:05.834Z,110
2016-09-14T08:53:05.619Z,110
2016-09-14T08:54:05.758Z,110
2016-09-14T08:55:07.825Z,110
2016-09-14T08:56:06.077Z,110
2016-09-14T08:57:05.460Z,110
2016-09-14T08:58:05.098Z,110
2016-09-14T08:59:05.126Z,110
2016-09-14T09:00:07.351Z,110
2016-09-14T09:01:05.961Z,110
2016-09-14T09:02:05.913Z,110
2016-09-14T09:03:05.619Z,110
2016-09-14T09:04:04.806Z,110
2016-09-14T09:05:04.431Z,110
2016-09-14T09:06:05.519Z,110
2016-09-14T09:07:05.192Z,110
2016-09-14T09:08:05.217Z,110
2016-09-14T09:09:05.348Z,110
2016-09-14T09:10:04.885Z,110
2016-09-14T09:11:05.168Z,105
2016-09-14T09:12:04.729Z,105
2016-09-14T09:13:04.347Z,105
2016-09-14T09:14:04.671Z,105
2016-09-14T09:15:05.150Z,105
2016-09-14T09:16:04.914Z,105
2016-09-14T09:17:04.607Z,105
2016-09-14T09:18:04.852Z,100
2016-09-14T09:19:04.839Z,100
2016-09-14T09:20:04.471Z,100
2016-09-14T09:21:03.660Z,100
2016-09-14T09:22:04.720Z,100
2016-09-14T09:23:04.602Z,100
2016-09-14T09:24:03.953Z,100
2016-09-14T09:25:03.948Z,100
2016-09-14T09:26:03.825Z,100
2016-09-14T09:27:03.541Z,100
2016-09-14T09:28:04.043Z,100
2016-09-14T09:29:03.687Z,100
2016-09-14T09:30:03.699Z,100
2016-09-14T09:31:03.679Z,100
2016-09-14T09:32:03.866Z,100
2016-09-14T09:33:03.553Z,100
2016-09-14T09:34:03.465Z,100
2016-09-14T09:35:03.783Z,100
2016-09-14T09:36:03.725Z,100
2016-09-14T09:37:04.017Z,100
2016-09-14T09:38:03.700Z,100
2016-09-14T09:39:03.896Z,100
2016-09-14T09:40:03.962Z,100
2016-09-14T09:41:04.041Z,100
2016-09-14T09:42:04.080Z,100
2016-09-14T09:43:03.544Z,105
2016-09-14T09:44:03.497Z,105
2016-09-14T09:45:04.155Z,105
2016-09-14T09:46:03.308Z,105
2016-09-14T09:47:03.254Z,105
2016-09-14T09:48:03.214Z,105
2016-09-14T09:49:03.680Z,105
2016-09-14T09:50:03.485Z,105
2016-09-14T09:51:02.529Z,105
2016-09-14T09:52:02.937Z,105
2016-09-14T09:53:03.490Z,105
2016-09-14T09:54:03.406Z,105
2016-09-14T09:55:02.952Z,105
2016-09-14T09:56:03.354Z,105
2016-09-14T09:57:03.207Z,105
2016-09-14T09:58:02.570Z,105
2016-09-14T09:59:02.809Z,105
2016-09-14T10:00:02.654Z,105
2016-09-14T10:01:03.141Z,105
2016-09-14T10:02:03.198Z,105
2016-09-14T10:03:03.149Z,105
2016-09-14T10:04:02.992Z,105
2016-09-14T10:05:02.059Z,105
2016-09-14T10:06:02.312Z,105
2016-09-14T10:07:02.570Z,105
2016-09-14T10:08:02.792Z,105
2016-09-14T10:09:02.472Z,110
2016-09-14T10:10:02.071Z,105
2016-09-14T10:11:02.651Z,100
2016-09-14T10:12:01.772Z,100
2016-09-14T10:13:02.563Z,100
2016-09-14T10:14:02.220Z,100
2016-09-14T10:15:02.205Z,100
2016-09-14T10:16:02.421Z,100
2016-09-14T10:17:01.896Z,100
2016-09-14T10:18:02.560Z,100
2016-09-14T10:19:01.988Z,100
2016-09-14T10:20:01.960Z,100
2016-09-14T10:21:02.606Z,100
2016-09-14T10:22:02.604Z,100
2016-09-14T10:23:01.604Z,100
2016-09-14T10:24:01.453Z,95
2016-09-14T10:25:02.046Z,95
2016-09-14T10:26:02.031Z,95
2016-09-14T10:27:01.951Z,95
2016-09-14T10:28:01.373Z,95
2016-09-14T10:29:01.265Z,95
2016-09-14T10:30:01.252Z,95
2016-09-14T10:31:01.789Z,95
2016-09-14T10:32:01.895Z,95
2016-09-14T10:33:01.067Z,95
2016-09-14T10:34:02.408Z,95
2016-09-14T10:35:01.662Z,95
2016-09-14T10:36:01.109Z,95
2016-09-14T10:37:01.257Z,95
2016-09-14T10:38:01.218Z,95
2016-09-14T10:39:01.489Z,95
2016-09-14T10:40:01.132Z,95
2016-09-14T10:41:01.396Z,95
2016-09-14T10:42:01.062Z,95
2016-09-14T10:43:01.018Z,95
2016-09-14T10:44:01.050Z,95
2016-09-14T10:45:01.409Z,95
2016-09-14T10:46:01.294Z,95
2016-09-14T10:47:01.241Z,95
2016-09-14T10:48:01.139Z,95
2016-09-14T10:49:01.416Z,95
2016-09-14T10:50:01.248Z,95
2016-09-14T10:51:01.620Z,95
2016-09-14T10:52:01.317Z,95
2016-09-14T10:53:00.912Z,95
2016-09-14T10:54:00.629Z,95
2016-09-14T10:55:00.813Z,95
2016-09-14T10:56:00.638Z,95
2016-09-14T10:57:00.665Z,95
2016-09-14T10:57:59.843Z,95
2016-09-14T10:59:00.092Z,95
2016-09-14T11:00:00.881Z,95
2016-09-14T11:01:00.449Z,95
2016-09-14T11:02:00.611Z,95
2016-09-14T11:03:00.351Z,95
2016-09-14T11:04:00.551Z,95
2016-09-14T11:05:00.465Z,95
2016-09-14T11:06:00.330Z,95
2016-09-14T11:07:00.395Z,95
2016-09-14T11:08:00.109Z,95
2016-09-14T11:09:00.425Z,95
2016-09-14T11:09:59.840Z,100
2016-09-14T11:10:59.907Z,100
2016-09-14T11:12:00.369Z,100
2016-09-14T11:13:00.352Z,100
2016-09-14T11:14:00.456Z,100
2016-09-14T11:15:00.013Z,100
2016-09-14T11:15:59.561Z,100
2016-09-14T11:16:59.771Z,100
2016-09-14T11:18:00.086Z,100
2016-09-14T11:19:00.142Z,100
2016-09-14T11:20:00.298Z,95
2016-09-14T11:20:59.836Z,100
2016-09-14T11:21:59.827Z,95
2016-09-14T11:22:59.514Z,95
2016-09-14T11:23:59.693Z,95
2016-09-14T11:24:59.351Z,95
2016-09-14T11:25:59.245Z,95
2016-09-14T11:26:59.727Z,95
2016-09-14T11:27:59.574Z,100
2016-09-14T11:28:59.644Z,95
2016-09-14T11:29:59.224Z,100
2016-09-14T11:30:59.604Z,100
2016-09-14T11:31:59.078Z,100
2016-09-14T11:32:59.071Z,95
2016-09-14T11:33:59.411Z,100
2016-09-14T11:34:59.185Z,100
2016-09-14T11:35:59.150Z,100
2016-09-14T11:36:59.251Z,100
2016-09-14T11:37:59.419Z,100
2016-09-14T11:38:59.128Z,100
2016-09-14T11:39:59.221Z,100
2016-09-14T11:40:58.735Z,100
2016-09-14T11:41:58.419Z,100
2016-09-14T11:42:58.369Z,100
2016-09-14T11:43:58.733Z,100
2016-09-14T11:44:59.423Z,100
2016-09-14T11:45:58.599Z,100
2016-09-14T11:46:58.223Z,100
2016-09-14T11:47:58.974Z,100
2016-09-14T11:48:58.722Z,100
2016-09-14T11:49:58.728Z,100
2016-09-14T11:50:58.687Z,100
2016-09-14T11:51:58.628Z,100
2016-09-14T11:52:58.302Z,100
2016-09-14T11:53:58.607Z,100
2016-09-14T11:54:58.522Z,100
2016-09-14T11:55:58.472Z,100
2016-09-14T11:56:58.479Z,100
2016-09-14T11:57:58.666Z,100
2016-09-14T11:58:58.055Z,100
2016-09-14T11:59:58.446Z,95
2016-09-14T12:00:58.329Z,100
2016-09-14T12:01:58.410Z,100
2016-09-14T12:02:58.711Z,100
2016-09-14T12:03:57.863Z,95
2016-09-14T12:04:57.814Z,100
2016-09-14T12:05:58.098Z,95
2016-09-14T12:06:57.909Z,100
2016-09-14T12:07:58.213Z,100
2016-09-14T12:08:57.987Z,100
2016-09-14T12:09:57.865Z,100
2016-09-14T12:10:57.591Z,100
2016-09-14T12:11:57.550Z,100
2016-09-14T12:12:58.451Z,100
2016-09-14T12:13:57.174Z,100
2016-09-14T12:14:57.971Z,100
2016-09-14T12:15:57.891Z,100
2016-09-14T12:16:57.623Z,100
2016-09-14T12:17:57.836Z,100
2016-09-14T12:18:57.595Z,100
2016-09-14T12:19:57.234Z,100
2016-09-14T12:20:57.507Z,100
2016-09-14T12:21:57.524Z,100
2016-09-14T12:22:57.626Z,95
2016-09-14T12:23:57.258Z,100
2016-09-14T12:24:57.377Z,100
2016-09-14T12:25:56.856Z,100
2016-09-14T12:26:57.387Z,100
2016-09-14T12:27:56.823Z,100
2016-09-14T12:28:56.945Z,100
2016-09-14T12:29:57.046Z,100
2016-09-14T12:30:57.354Z,100
2016-09-14T12:31:56.837Z,100
2016-09-14T12:32:57.237Z,100
2016-09-14T12:33:56.359Z,100
2016-09-14T12:34:57.218Z,100
2016-09-14T12:35:56.984Z,100
2016-09-14T12:36:57.482Z,100
2016-09-14T12:37:57.241Z,100
2016-09-14T12:38:57.275Z,105
2016-09-14T12:39:56.460Z,105
2016-09-14T12:40:56.801Z,105
2016-09-14T12:41:56.690Z,100
2016-09-14T12:42:56.697Z,100
2016-09-14T12:43:57.307Z,105
2016-09-14T12:44:56.929Z,100
2016-09-14T12:45:56.600Z,100
2016-09-14T12:46:56.922Z,100
2016-09-14T12:47:56.408Z,100
2016-09-14T12:48:56.711Z,100
2016-09-14T12:49:56.160Z,100
2016-09-14T12:50:56.255Z,100
2016-09-14T12:51:55.970Z,100
2016-09-14T12:52:55.944Z,100
2016-09-14T12:53:56.335Z,100
2016-09-14T12:54:56.398Z,100
2016-09-14T12:55:56.275Z,95
2016-09-14T12:56:56.273Z,100
2016-09-14T12:57:56.389Z,100
2016-09-14T12:58:56.317Z,100
2016-09-14T12:59:56.161Z,100
2016-09-14T13:00:56.191Z,100
2016-09-14T13:01:56.157Z,105
2016-09-14T13:02:55.262Z,100
2016-09-14T13:03:56.007Z,100
2016-09-14T13:04:55.690Z,105
2016-09-14T13:05:55.684Z,105
2016-09-14T13:06:55.844Z,100
2016-09-14T13:07:56.071Z,100
2016-09-14T13:08:55.385Z,100
2016-09-14T13:09:56.937Z,100
2016-09-14T13:10:54.843Z,100
2016-09-14T13:11:55.328Z,100
2016-09-14T13:12:54.990Z,100
2016-09-14T13:13:56.756Z,100
2016-09-14T13:14:54.672Z,100
2016-09-14T13:15:54.830Z,100
2016-09-14T13:16:55.089Z,100
2016-09-14T13:17:55.319Z,100
2016-09-14T13:18:56.859Z,100
2016-09-14T13:19:55.320Z,105
2016-09-14T13:20:55.111Z,105
2016-09-14T13:21:55.479Z,105
2016-09-14T13:22:54.968Z,105
2016-09-14T13:23:55.517Z,105
2016-09-14T13:24:54.909Z,105
2016-09-14T13:25:55.732Z,105
2016-09-14T13:26:55.712Z,105
2016-09-14T13:27:55.453Z,105
2016-09-14T13:28:55.062Z,105
2016-09-14T13:29:55.410Z,100
2016-09-14T13:30:54.707Z,100
2016-09-14T13:31:55.012Z,100
2016-09-14T13:32:55.095Z,100
2016-09-14T13:33:54.774Z,105
2016-09-14T13:34:54.524Z,105
2016-09-14T13:35:54.855Z,105
2016-09-14T13:36:54.622Z,105
2016-09-14T13:37:54.966Z,105
2016-09-14T13:38:54.565Z,105
2016-09-14T13:39:54.949Z,105
2016-09-14T13:40:54.260Z,105
2016-09-14T13:41:53.977Z,105
2016-09-14T13:42:54.827Z,105
2016-09-14T13:43:54.374Z,105
2016-09-14T13:44:54.182Z,105
2016-09-14T13:45:54.352Z,105
2016-09-14T13:46:54.307Z,105
2016-09-14T13:47:54.473Z,105
2016-09-14T13:48:54.705Z,105
2016-09-14T13:49:54.322Z,105
2016-09-14T13:50:54.606Z,105
2016-09-14T13:51:53.745Z,105
2016-09-14T13:52:53.814Z,105
2016-09-14T13:53:53.897Z,100
2016-09-14T13:54:53.267Z,100
2016-09-14T13:55:54.280Z,100
2016-09-14T13:56:53.216Z,100
2016-09-14T13:57:56.369Z,100
2016-09-14T13:58:53.948Z,100
2016-09-14T13:59:53.641Z,100
2016-09-14T14:00:53.575Z,100
2016-09-14T14:01:56.763Z,100
2016-09-14T14:02:53.446Z,105
2016-09-14T14:03:52.956Z,105
2016-09-14T14:04:53.731Z,105
2016-09-14T14:05:53.215Z,105
2016-09-14T14:06:55.970Z,105
2016-09-14T14:07:52.832Z,105
2016-09-14T14:08:53.686Z,105
2016-09-14T14:09:53.373Z,105
2016-09-14T14:10:52.787Z,105
2016-09-14T14:11:53.969Z,105
2016-09-14T14:12:53.477Z,105
2016-09-14T14:13:53.106Z,105
2016-09-14T14:14:53.283Z,105
2016-09-14T14:15:52.834Z,105